Vance Air Force Base
KEND : now visible

Aeroporto :











RITROVATECI SU...

 
LOGIN :

Iscrizione | Disclaimer

   EN    FR    IT 

 









Sommario :    VFR   VFR Marginale   IFR   IFR Intensivo   IFR Molto Intensivo
Visibilità : 
Base nubi : 
>= 8 km
>= 3000ft
5 / 8 km
1000 / 3000 ft
1500m / 5 km
500 / 1000 ft
800 / 1500m
200 / 500 ft
< 800m
< 200 ft
Simboli :   Temporali  Nebbia  Neve Forte  Precipitazioni Forti  Vento > 20 kt







- Altitudine del aeroporto : 1307 ft


KEND - Vance Air Force Base

ULTIMO METAR :
  • 181556Z 07008KT 10SM CLR 11/00 A3036 RMK AO2A SLP285 T01090000 $

METARs OBSOLETI :
  • 181456Z 08010KT 10SM CLR 09/00 A3034 RMK AO2A SLP279 T00911005 52016 $
  • 181356Z 06008KT 10SM CLR 07/01 A3032 RMK AO2A SLP272 T00690006 $

TAF TAF KEND
Valido dal 18 a 10 ore il 19 a 16 ore UTC


181000Z 1810/1916 04006KT 9999 SCT100 QNH3025INS
BECMG 1817/1818 10012KT 9999 SCT100 QNH3023INS
BECMG 1902/1903 VRB06KT 9999 SKC QNH3019INS TX20/1821Z TN00/1812Z
FIR KZKC / America del Nord



MetMap, La meteo Aeronautica in un colpo d'occhio ! - Copyright ORBIFLY Dicembre 2007 - Disclaimer

ORBIFLY MET'MAP TEAM :

Programmazione e sviluppo : Alexandra Zaïnal
Concezione e sviluppo : Baudouin d'Aumeries
Co-Programmazione e sviluppo : Marc-Olivier Méhu
Supporto tecnico e logistico : Manuel Goepfert
Aiuto per la traduzione : Arnaldo La Scala

Contatto : metmap@orbifly.com




FONTI E CREDITI :

   NOAA       Earth
Advisory